createdAt,value
2017-07-31T00:00:09.081Z,25.8
2017-07-31T00:01:19.311Z,25.76
2017-07-31T00:02:29.224Z,25.77
2017-07-31T00:03:39.135Z,25.75
2017-07-31T00:04:49.039Z,25.79
2017-07-31T00:05:58.958Z,25.7
2017-07-31T00:07:08.573Z,25.69
2017-07-31T00:08:18.482Z,25.7
2017-07-31T00:09:27.783Z,25.75
2017-07-31T00:10:37.702Z,25.7
2017-07-31T00:11:47.634Z,25.69
2017-07-31T00:12:57.551Z,25.7
2017-07-31T00:14:07.783Z,25.76
2017-07-31T00:15:17.403Z,25.7
2017-07-31T00:16:27.316Z,25.69
2017-07-31T00:17:37.542Z,25.69
2017-07-31T00:18:47.783Z,25.67
2017-07-31T00:19:57.705Z,25.7
2017-07-31T00:21:07.945Z,25.72
2017-07-31T00:22:18.159Z,25.65
2017-07-31T00:23:28.369Z,25.75
2017-07-31T00:24:38.306Z,25.76
2017-07-31T00:25:48.524Z,25.76
2017-07-31T00:26:58.451Z,25.67
2017-07-31T00:28:08.064Z,25.75
2017-07-31T00:29:18.139Z,25.72
2017-07-31T00:30:27.771Z,25.7
2017-07-31T00:31:38.003Z,25.69
2017-07-31T00:32:47.921Z,25.73
2017-07-31T00:33:57.832Z,25.7
2017-07-31T00:35:07.764Z,25.72
2017-07-31T00:36:17.688Z,25.75
2017-07-31T00:37:27.919Z,25.75
2017-07-31T00:38:37.863Z,25.67
2017-07-31T00:39:47.797Z,25.75
2017-07-31T00:40:57.418Z,25.7
2017-07-31T00:42:07.642Z,25.73
2017-07-31T00:43:17.570Z,25.73
2017-07-31T00:44:27.213Z,25.7
2017-07-31T00:45:37.444Z,25.7
2017-07-31T00:46:47.063Z,25.69
2017-07-31T00:47:57.002Z,25.69
2017-07-31T00:49:07.239Z,25.64
2017-07-31T00:50:16.856Z,25.64
2017-07-31T00:51:26.465Z,25.64
2017-07-31T00:52:36.416Z,25.64
2017-07-31T00:53:46.335Z,25.64
2017-07-31T00:54:55.956Z,25.6
2017-07-31T00:56:06.243Z,25.54
2017-07-31T00:57:16.157Z,25.52
2017-07-31T00:58:26.066Z,25.55
2017-07-31T00:59:36.350Z,25.5
2017-07-31T01:00:45.950Z,25.47
2017-07-31T01:01:55.885Z,25.38
2017-07-31T01:03:06.105Z,25.4
2017-07-31T01:04:15.882Z,25.39
2017-07-31T01:05:25.786Z,25.36
2017-07-31T01:06:36.005Z,25.35
2017-07-31T01:07:45.916Z,25.4
2017-07-31T01:08:55.827Z,25.35
2017-07-31T01:10:05.145Z,25.36
2017-07-31T01:11:14.450Z,25.35
2017-07-31T01:12:24.687Z,25.38
2017-07-31T01:13:34.904Z,25.39
2017-07-31T01:14:45.136Z,25.39
2017-07-31T01:15:55.054Z,25.38
2017-07-31T01:17:05.282Z,25.4
2017-07-31T01:18:15.501Z,25.39
2017-07-31T01:19:25.422Z,25.38
2017-07-31T01:20:35.073Z,25.43
2017-07-31T01:21:44.985Z,25.38
2017-07-31T01:22:55.223Z,25.45
2017-07-31T01:24:05.163Z,25.47
2017-07-31T01:25:15.406Z,25.4
2017-07-31T01:26:24.717Z,25.45
2017-07-31T01:27:34.639Z,25.46
2017-07-31T01:28:43.964Z,25.45
2017-07-31T01:29:53.883Z,25.36
2017-07-31T01:31:04.102Z,25.45
2017-07-31T01:32:13.421Z,25.38
2017-07-31T01:33:23.437Z,25.46
2017-07-31T01:34:33.384Z,25.51
2017-07-31T01:35:43.351Z,25.5
2017-07-31T01:36:52.677Z,25.51
2017-07-31T01:38:02.922Z,25.51
2017-07-31T01:39:12.533Z,25.54
2017-07-31T01:40:22.456Z,25.51
2017-07-31T01:41:32.689Z,25.51
2017-07-31T01:42:41.984Z,25.52
2017-07-31T01:43:51.906Z,25.51
2017-07-31T01:45:01.586Z,25.51
2017-07-31T01:46:11.825Z,25.58
2017-07-31T01:47:22.041Z,25.58
2017-07-31T01:48:31.963Z,25.47
2017-07-31T01:49:41.882Z,25.51
2017-07-31T01:50:52.170Z,25.54
2017-07-31T01:52:02.395Z,25.57
2017-07-31T01:53:12.328Z,25.47
2017-07-31T01:54:21.989Z,25.45
2017-07-31T01:55:31.908Z,25.46
2017-07-31T01:56:42.123Z,25.35
2017-07-31T01:57:52.040Z,25.33
2017-07-31T01:59:02.262Z,25.38
2017-07-31T02:00:12.492Z,25.45
2017-07-31T02:01:22.408Z,25.42
2017-07-31T02:02:31.710Z,25.45
2017-07-31T02:03:41.642Z,25.4
2017-07-31T02:04:51.555Z,25.36
2017-07-31T02:06:01.459Z,25.3
2017-07-31T02:07:11.068Z,25.3
2017-07-31T02:08:20.694Z,25.27
2017-07-31T02:09:30.615Z,25.27
2017-07-31T02:10:40.534Z,25.3
2017-07-31T02:11:50.756Z,25.24
2017-07-31T02:13:01.009Z,25.32
2017-07-31T02:14:10.920Z,25.28
2017-07-31T02:15:21.154Z,25.21
2017-07-31T02:16:31.385Z,25.28
2017-07-31T02:17:41.621Z,25.24
2017-07-31T02:18:51.857Z,25.25
2017-07-31T02:20:01.774Z,25.17
2017-07-31T02:21:11.692Z,25.27
2017-07-31T02:22:21.298Z,25.18
2017-07-31T02:23:31.510Z,25.21
2017-07-31T02:24:41.749Z,25.18
2017-07-31T02:25:51.347Z,25.18
2017-07-31T02:27:01.278Z,25.2
2017-07-31T02:28:11.220Z,25.17
2017-07-31T02:29:21.472Z,25.15
2017-07-31T02:30:31.122Z,25.13
2017-07-31T02:31:41.049Z,25.18
2017-07-31T02:32:51.003Z,25.1
2017-07-31T02:34:00.924Z,25.09
2017-07-31T02:35:10.863Z,25.14
2017-07-31T02:36:21.091Z,25.13
2017-07-31T02:37:31.030Z,25.05
2017-07-31T02:38:41.252Z,25.13
2017-07-31T02:39:51.499Z,25.06
2017-07-31T02:41:01.425Z,25.08
2017-07-31T02:42:11.662Z,25.05
2017-07-31T02:43:21.306Z,25.09
2017-07-31T02:44:31.540Z,25.03
2017-07-31T02:45:41.163Z,25.08
2017-07-31T02:46:51.089Z,24.98
2017-07-31T02:48:01.016Z,24.99
2017-07-31T02:49:10.646Z,24.96
2017-07-31T02:50:20.881Z,25.03
2017-07-31T02:51:30.799Z,25.03
2017-07-31T02:52:40.715Z,24.91
2017-07-31T02:53:50.628Z,25
2017-07-31T02:54:59.937Z,24.99
2017-07-31T02:56:09.862Z,25.02
2017-07-31T02:57:19.474Z,24.93
2017-07-31T02:58:29.716Z,24.9
2017-07-31T02:59:39.627Z,24.93
2017-07-31T03:00:48.937Z,24.95
2017-07-31T03:01:59.178Z,24.96
2017-07-31T03:03:09.109Z,24.9
2017-07-31T03:04:18.410Z,25.02
2017-07-31T03:05:28.339Z,24.93
2017-07-31T03:06:38.264Z,24.91
2017-07-31T03:07:47.876Z,24.9
2017-07-31T03:08:57.485Z,24.95
2017-07-31T03:10:07.085Z,24.95
2017-07-31T03:11:17.310Z,25.03
2017-07-31T03:12:27.238Z,24.93
2017-07-31T03:13:37.471Z,24.95
2017-07-31T03:14:47.101Z,24.95
2017-07-31T03:15:57.336Z,24.95
2017-07-31T03:17:07.259Z,25
2017-07-31T03:18:16.564Z,24.88
2017-07-31T03:19:26.789Z,24.96
2017-07-31T03:20:36.704Z,24.96
2017-07-31T03:21:46.650Z,24.91
2017-07-31T03:22:56.579Z,24.91
2017-07-31T03:24:06.819Z,24.8
2017-07-31T03:25:17.034Z,24.84
2017-07-31T03:26:26.971Z,24.81
2017-07-31T03:27:37.205Z,24.81
2017-07-31T03:28:47.133Z,24.83
2017-07-31T03:29:56.747Z,24.81
2017-07-31T03:31:06.717Z,24.85
2017-07-31T03:32:17.327Z,24.8
2017-07-31T03:33:27.246Z,24.73
2017-07-31T03:34:36.853Z,24.84
2017-07-31T03:35:46.919Z,24.81
2017-07-31T03:36:56.838Z,24.78
2017-07-31T03:38:07.061Z,24.77
2017-07-31T03:39:16.990Z,24.78
2017-07-31T03:40:26.922Z,24.77
2017-07-31T03:41:37.150Z,24.77
2017-07-31T03:42:46.773Z,24.67
2017-07-31T03:43:56.379Z,24.69
2017-07-31T03:45:06.323Z,24.67
2017-07-31T03:46:16.544Z,24.65
2017-07-31T03:47:26.778Z,24.64
2017-07-31T03:48:36.090Z,24.68
2017-07-31T03:49:46.017Z,24.62
2017-07-31T03:50:55.623Z,24.62
2017-07-31T03:52:04.928Z,24.61
2017-07-31T03:53:14.850Z,24.69
2017-07-31T03:54:25.069Z,24.65
2017-07-31T03:55:35.300Z,24.67
2017-07-31T03:56:45.229Z,24.69
2017-07-31T03:57:55.138Z,24.68
2017-07-31T03:59:05.404Z,24.71
2017-07-31T04:00:15.325Z,24.68
2017-07-31T04:01:25.245Z,24.71
2017-07-31T04:02:34.870Z,24.73
2017-07-31T04:03:45.108Z,24.76
2017-07-31T04:04:55.173Z,24.73
2017-07-31T04:06:05.106Z,24.78
2017-07-31T04:07:14.722Z,24.76
2017-07-31T04:08:24.950Z,24.76
2017-07-31T04:09:34.883Z,24.83
2017-07-31T04:10:44.513Z,24.81
2017-07-31T04:11:54.759Z,24.76
2017-07-31T04:13:04.683Z,24.76
2017-07-31T04:14:14.623Z,24.81
2017-07-31T04:15:24.878Z,24.76
2017-07-31T04:16:35.131Z,24.8
2017-07-31T04:17:45.053Z,24.8
2017-07-31T04:18:55.278Z,24.78
2017-07-31T04:20:05.192Z,24.83
2017-07-31T04:21:15.106Z,24.8
2017-07-31T04:22:25.020Z,24.85
2017-07-31T04:23:34.937Z,24.76
2017-07-31T04:24:45.158Z,24.83
2017-07-31T04:25:55.399Z,24.78
2017-07-31T04:27:04.998Z,24.83
2017-07-31T04:28:14.927Z,24.77
2017-07-31T04:29:25.204Z,24.81
2017-07-31T04:30:35.125Z,24.8
2017-07-31T04:31:45.409Z,24.77
2017-07-31T04:32:55.319Z,24.78
2017-07-31T04:34:05.561Z,24.71
2017-07-31T04:35:15.780Z,24.71
2017-07-31T04:36:25.125Z,24.76
2017-07-31T04:37:35.030Z,24.76
2017-07-31T04:38:44.945Z,24.67
2017-07-31T04:39:54.855Z,24.65
2017-07-31T04:41:04.765Z,24.68
2017-07-31T04:42:14.706Z,24.65
2017-07-31T04:43:24.926Z,24.62
2017-07-31T04:44:34.838Z,24.62
2017-07-31T04:45:45.069Z,24.64
2017-07-31T04:46:54.672Z,24.62
2017-07-31T04:48:04.893Z,24.62
2017-07-31T04:49:15.514Z,24.65
2017-07-31T04:50:25.140Z,24.67
2017-07-31T04:51:34.754Z,24.62
2017-07-31T04:52:44.999Z,24.67
2017-07-31T04:53:54.945Z,24.65
2017-07-31T04:55:04.877Z,24.69
2017-07-31T04:56:14.806Z,24.64
2017-07-31T04:57:25.040Z,24.73
2017-07-31T04:58:34.642Z,24.62
2017-07-31T04:59:44.566Z,24.67
2017-07-31T05:00:53.889Z,24.62
2017-07-31T05:02:03.813Z,24.69
2017-07-31T05:03:13.434Z,24.67
2017-07-31T05:04:23.358Z,24.73
2017-07-31T05:05:32.975Z,24.67
2017-07-31T05:06:42.581Z,24.62
2017-07-31T05:10:25.169Z,24.67
2017-07-31T05:11:35.094Z,24.76
2017-07-31T05:12:45.017Z,24.73
2017-07-31T05:13:54.927Z,24.77
2017-07-31T05:15:04.836Z,24.78
2017-07-31T05:16:14.754Z,24.8
2017-07-31T05:17:24.670Z,24.81
2017-07-31T05:18:34.574Z,24.93
2017-07-31T05:19:44.508Z,24.8
2017-07-31T05:20:54.743Z,24.93
2017-07-31T05:22:04.652Z,24.9
2017-07-31T05:23:14.566Z,24.88
2017-07-31T05:24:24.183Z,24.91
2017-07-31T05:25:33.800Z,24.99
2017-07-31T05:26:43.722Z,24.99
2017-07-31T05:27:53.941Z,25.08
2017-07-31T05:29:03.548Z,25.14
2017-07-31T05:30:13.471Z,25.18
2017-07-31T05:31:23.089Z,25.24
2017-07-31T05:32:32.726Z,25.28
2017-07-31T05:33:42.960Z,25.27
2017-07-31T05:34:52.890Z,25.45
2017-07-31T05:36:03.166Z,25.52
2017-07-31T05:37:13.117Z,25.6
2017-07-31T05:38:22.814Z,25.64
2017-07-31T05:39:32.945Z,25.73
2017-07-31T05:40:42.861Z,25.7
2017-07-31T05:41:52.861Z,25.76
2017-07-31T05:43:03.081Z,25.77
2017-07-31T05:44:13.107Z,25.94
2017-07-31T05:45:23.592Z,25.92
2017-07-31T05:46:33.098Z,25.92
2017-07-31T05:47:42.697Z,25.92
2017-07-31T05:48:52.907Z,26.06
2017-07-31T05:50:03.179Z,26.1
2017-07-31T05:51:13.179Z,26.3
2017-07-31T05:52:23.087Z,26.29
2017-07-31T05:53:33.009Z,26.3
2017-07-31T05:54:42.928Z,26.33
2017-07-31T05:55:53.154Z,26.39
2017-07-31T05:57:02.767Z,26.36
2017-07-31T05:58:12.382Z,26.4
2017-07-31T05:59:22.314Z,26.43
2017-07-31T06:00:32.549Z,26.43
2017-07-31T06:01:42.772Z,26.45
2017-07-31T06:02:53.358Z,26.37
2017-07-31T06:04:03.674Z,26.47
2017-07-31T06:05:13.769Z,26.48
2017-07-31T06:06:23.694Z,26.5
2017-07-31T06:07:33.621Z,26.52
2017-07-31T06:08:44.008Z,26.52
2017-07-31T06:09:53.638Z,26.52
2017-07-31T06:11:03.247Z,26.57
2017-07-31T06:12:13.167Z,26.57
2017-07-31T06:13:23.079Z,26.65
2017-07-31T06:14:32.719Z,26.6
2017-07-31T06:15:42.641Z,26.66
2017-07-31T06:16:52.863Z,26.77
2017-07-31T06:18:03.095Z,26.67
2017-07-31T06:19:12.714Z,26.76
2017-07-31T06:20:22.622Z,26.76
2017-07-31T06:21:32.525Z,26.81
2017-07-31T06:22:42.445Z,26.97
2017-07-31T06:23:52.363Z,27
2017-07-31T06:25:02.580Z,27.14
2017-07-31T06:26:12.505Z,27.18
2017-07-31T06:27:22.415Z,27.28
2017-07-31T06:28:32.628Z,27.37
2017-07-31T06:29:42.240Z,27.37
2017-07-31T06:30:52.162Z,27.34
2017-07-31T06:32:01.780Z,27.51
2017-07-31T06:33:11.398Z,27.55
2017-07-31T06:34:21.321Z,27.54
2017-07-31T06:35:31.551Z,27.62
2017-07-31T06:36:41.808Z,27.55
2017-07-31T06:37:51.741Z,27.5
2017-07-31T06:39:01.350Z,27.57
2017-07-31T06:40:10.965Z,27.51
2017-07-31T06:41:20.884Z,27.59
2017-07-31T06:42:30.822Z,27.55
2017-07-31T06:43:40.748Z,27.51
2017-07-31T06:44:50.064Z,27.4
2017-07-31T06:45:59.672Z,27.39
2017-07-31T06:47:09.587Z,27.41
2017-07-31T06:48:19.813Z,27.39
2017-07-31T06:49:29.426Z,27.4
2017-07-31T06:50:39.358Z,27.32
2017-07-31T06:51:49.576Z,27.29
2017-07-31T06:52:59.207Z,27.24
2017-07-31T06:54:09.125Z,27.34
2017-07-31T06:55:19.352Z,27.34
2017-07-31T06:56:29.585Z,27.29
2017-07-31T06:57:38.891Z,27.31
2017-07-31T06:58:48.505Z,27.37
2017-07-31T06:59:58.450Z,27.25
2017-07-31T07:01:08.083Z,27.41
2017-07-31T07:02:18.310Z,27.37
2017-07-31T07:03:28.542Z,27.31
2017-07-31T07:04:38.482Z,27.36
2017-07-31T07:05:48.095Z,27.27
2017-07-31T07:06:58.325Z,27.34
2017-07-31T07:08:08.261Z,27.39
2017-07-31T07:09:18.531Z,27.36
2017-07-31T07:10:27.840Z,27.36
2017-07-31T07:11:37.750Z,27.36
2017-07-31T07:12:47.971Z,27.5
2017-07-31T07:13:58.201Z,27.72
2017-07-31T07:15:08.128Z,27.96
2017-07-31T07:16:18.352Z,28.12
2017-07-31T07:17:27.659Z,28.33
2017-07-31T07:18:37.581Z,28.34
2017-07-31T07:19:47.827Z,28.36
2017-07-31T07:20:57.451Z,28.27
2017-07-31T07:22:07.369Z,28.19
2017-07-31T07:23:17.596Z,28.24
2017-07-31T07:24:27.830Z,28.39
2017-07-31T07:25:37.748Z,28.71
2017-07-31T07:26:47.666Z,28.95
2017-07-31T07:27:57.270Z,29.23
2017-07-31T07:29:06.580Z,29.43
2017-07-31T07:30:16.829Z,29.67
2017-07-31T07:31:26.747Z,30.04
2017-07-31T07:32:36.984Z,30.19
2017-07-31T07:33:46.292Z,30.58
2017-07-31T07:34:56.210Z,30.91
2017-07-31T07:36:05.516Z,31.04
2017-07-31T07:37:14.823Z,31.21
2017-07-31T07:38:24.429Z,31.35
2017-07-31T07:39:33.722Z,31.5
2017-07-31T07:40:43.938Z,31.69
2017-07-31T07:41:53.545Z,31.78
2017-07-31T07:43:03.151Z,31.93
2017-07-31T07:44:13.398Z,32.14
2017-07-31T07:45:23.311Z,32.29
2017-07-31T07:46:33.215Z,32.41
2017-07-31T07:47:43.169Z,32.5
2017-07-31T07:48:53.080Z,32.57
2017-07-31T07:50:02.687Z,32.38
2017-07-31T07:51:12.920Z,32.14
2017-07-31T07:52:22.840Z,31.95
2017-07-31T07:53:32.752Z,31.92
2017-07-31T07:54:43.368Z,32.22
2017-07-31T07:55:52.971Z,32.37
2017-07-31T07:57:02.898Z,32.43
2017-07-31T07:58:12.834Z,32.28
2017-07-31T07:59:23.077Z,32.08
2017-07-31T08:00:33.016Z,32.25
2017-07-31T08:01:42.930Z,32.11
2017-07-31T08:02:53.144Z,32.22
2017-07-31T08:04:02.762Z,32.29
2017-07-31T08:05:12.695Z,32.55
2017-07-31T08:06:22.929Z,32.81
2017-07-31T08:07:32.865Z,32.85
2017-07-31T08:08:43.098Z,32.81
2017-07-31T08:09:52.397Z,32.77
2017-07-31T08:11:02.314Z,32.72
2017-07-31T08:12:12.543Z,32.5
2017-07-31T08:13:22.473Z,32.41
2017-07-31T08:14:32.385Z,32.4
2017-07-31T08:15:42.620Z,32.32
2017-07-31T08:16:52.230Z,32.11
2017-07-31T08:18:02.459Z,32.13
2017-07-31T08:19:12.077Z,32
2017-07-31T08:20:21.690Z,31.91
2017-07-31T08:21:31.015Z,31.75
2017-07-31T08:22:41.252Z,32.19
2017-07-31T08:23:51.160Z,32.45
2017-07-31T08:25:00.762Z,32.82
2017-07-31T08:26:09.762Z,33.09
2017-07-31T08:27:19.686Z,33.45
2017-07-31T08:28:29.605Z,33.76
2017-07-31T08:29:39.522Z,34.03
2017-07-31T08:30:49.745Z,34.34
2017-07-31T08:31:59.672Z,34.54
2017-07-31T08:33:09.890Z,34.69
2017-07-31T08:34:19.516Z,34.84
2017-07-31T08:35:29.464Z,34.99
2017-07-31T08:36:39.392Z,34.96
2017-07-31T08:37:49.305Z,34.85
2017-07-31T08:38:59.568Z,34.77
2017-07-31T08:40:09.497Z,34.7
2017-07-31T08:41:19.408Z,34.43
2017-07-31T08:42:29.047Z,34.12
2017-07-31T08:43:39.275Z,34.02
2017-07-31T08:44:48.591Z,33.95
2017-07-31T08:45:58.554Z,33.81
2017-07-31T08:47:08.797Z,33.82
2017-07-31T08:48:18.723Z,33.76
2017-07-31T08:49:28.334Z,33.78
2017-07-31T08:50:38.574Z,33.75
2017-07-31T08:51:48.826Z,33.71
2017-07-31T08:52:59.070Z,33.66
2017-07-31T08:54:08.997Z,33.66
2017-07-31T08:55:18.628Z,33.81
2017-07-31T08:56:28.853Z,33.81
2017-07-31T08:57:38.769Z,33.97
2017-07-31T08:58:48.392Z,34.15
2017-07-31T08:59:58.301Z,34.3
2017-07-31T09:01:07.632Z,34.27
2017-07-31T09:02:17.250Z,34.13
2017-07-31T09:03:26.576Z,33.87
2017-07-31T09:04:36.508Z,33.53
2017-07-31T09:05:46.739Z,33.29
2017-07-31T09:06:56.671Z,32.94
2017-07-31T09:08:06.590Z,32.78
2017-07-31T09:09:16.517Z,32.45
2017-07-31T09:10:26.139Z,32.21
2017-07-31T09:11:36.383Z,31.88
2017-07-31T09:12:46.628Z,31.68
2017-07-31T09:13:56.239Z,31.53
2017-07-31T09:15:05.848Z,31.29
2017-07-31T09:16:15.761Z,31.04
2017-07-31T09:17:25.678Z,30.94
2017-07-31T09:18:35.900Z,30.84
2017-07-31T09:19:45.864Z,30.6
2017-07-31T09:20:55.479Z,30.54
2017-07-31T09:22:05.097Z,30.26
2017-07-31T09:23:15.009Z,30.24
2017-07-31T09:24:24.308Z,30.17
2017-07-31T09:25:34.543Z,29.98
2017-07-31T09:26:44.762Z,29.86
2017-07-31T09:27:54.709Z,29.79
2017-07-31T09:29:04.621Z,29.67
2017-07-31T09:30:14.568Z,29.61
2017-07-31T09:31:24.509Z,29.53
2017-07-31T09:32:34.122Z,29.49
2017-07-31T09:33:44.339Z,29.36
2017-07-31T09:34:54.261Z,29.31
2017-07-31T09:36:03.867Z,29.24
2017-07-31T09:37:12.876Z,29.16
2017-07-31T09:38:22.793Z,29.14
2017-07-31T09:39:32.740Z,28.96
2017-07-31T09:40:42.994Z,29.04
2017-07-31T09:41:52.934Z,28.88
2017-07-31T09:43:02.857Z,28.86
2017-07-31T09:44:12.808Z,28.86
2017-07-31T09:45:22.757Z,28.76
2017-07-31T09:46:32.676Z,28.77
2017-07-31T09:47:42.584Z,28.66
2017-07-31T09:48:52.506Z,28.66
2017-07-31T09:50:02.436Z,28.58
2017-07-31T09:51:12.052Z,28.59
2017-07-31T09:52:22.273Z,28.59
2017-07-31T09:53:31.911Z,28.52
2017-07-31T09:54:42.129Z,28.51
2017-07-31T09:55:52.055Z,28.36
2017-07-31T09:57:01.674Z,28.41
2017-07-31T09:58:11.625Z,28.39
2017-07-31T09:59:21.537Z,28.39
2017-07-31T10:00:31.790Z,28.4
2017-07-31T10:01:42.011Z,28.37
2017-07-31T10:02:52.251Z,28.37
2017-07-31T10:04:02.475Z,28.34
2017-07-31T10:05:12.394Z,28.43
2017-07-31T10:06:22.329Z,28.36
2017-07-31T10:07:32.240Z,28.33
2017-07-31T10:08:42.468Z,28.31
2017-07-31T10:09:52.079Z,28.31
2017-07-31T10:11:01.694Z,28.22
2017-07-31T10:12:11.335Z,28.22
2017-07-31T10:13:21.564Z,28.21
2017-07-31T10:14:31.501Z,28.18
2017-07-31T10:15:41.133Z,28.21
2017-07-31T10:16:50.798Z,28.11
2017-07-31T10:18:00.721Z,28.22
2017-07-31T10:19:10.646Z,28.07
2017-07-31T10:20:20.869Z,28
2017-07-31T10:21:30.789Z,27.99
2017-07-31T10:22:41.004Z,27.99
2017-07-31T10:23:50.309Z,27.92
2017-07-31T10:25:00.547Z,27.99
2017-07-31T10:26:09.839Z,28
2017-07-31T10:27:19.763Z,27.94
2017-07-31T10:28:29.674Z,27.96
2017-07-31T10:29:39.899Z,27.92
2017-07-31T10:30:50.112Z,27.97
2017-07-31T10:31:59.724Z,28
2017-07-31T10:33:09.330Z,27.96
2017-07-31T10:34:19.258Z,27.99
2017-07-31T10:35:29.176Z,27.92
2017-07-31T10:36:39.122Z,27.94
2017-07-31T10:37:49.058Z,27.9
2017-07-31T10:38:58.681Z,27.9
2017-07-31T10:40:08.614Z,27.94
2017-07-31T10:41:18.234Z,27.9
2017-07-31T10:42:28.225Z,27.88
2017-07-31T10:43:37.869Z,27.9
2017-07-31T10:44:47.489Z,27.85
2017-07-31T10:45:57.135Z,27.82
2017-07-31T10:47:07.076Z,27.85
2017-07-31T10:48:17.386Z,27.9
2017-07-31T10:49:27.015Z,27.85
2017-07-31T10:50:36.991Z,27.9
2017-07-31T10:51:46.636Z,27.87
2017-07-31T10:52:56.918Z,27.9
2017-07-31T10:54:07.181Z,27.77
2017-07-31T10:55:16.798Z,27.87
2017-07-31T10:56:27.028Z,27.92
2017-07-31T10:57:37.276Z,27.9
2017-07-31T10:58:46.589Z,27.87
2017-07-31T10:59:56.588Z,27.85
2017-07-31T11:01:06.304Z,27.88
2017-07-31T11:02:15.623Z,27.97
2017-07-31T11:03:25.578Z,27.88
2017-07-31T11:04:35.845Z,27.88
2017-07-31T11:05:45.468Z,27.88
2017-07-31T11:06:55.434Z,27.97
2017-07-31T11:08:05.406Z,27.88
2017-07-31T11:09:15.662Z,27.92
2017-07-31T11:10:25.903Z,27.92
2017-07-31T11:11:35.824Z,27.88
2017-07-31T11:12:45.772Z,27.93
2017-07-31T11:13:55.993Z,27.94
2017-07-31T11:15:05.912Z,27.87
2017-07-31T11:16:15.820Z,27.88
2017-07-31T11:17:25.739Z,27.81
2017-07-31T11:18:35.657Z,27.87
2017-07-31T11:19:45.270Z,27.82
2017-07-31T11:20:54.874Z,27.84
2017-07-31T11:22:04.177Z,27.87
2017-07-31T11:23:14.407Z,27.87
2017-07-31T11:24:24.307Z,27.82
2017-07-31T11:25:34.540Z,27.87
2017-07-31T11:26:44.223Z,27.77
2017-07-31T11:27:54.160Z,27.78
2017-07-31T11:29:04.383Z,27.79
2017-07-31T11:30:14.321Z,27.81
2017-07-31T11:31:24.536Z,27.7
2017-07-31T11:32:34.465Z,27.77
2017-07-31T11:33:44.386Z,27.77
2017-07-31T11:34:54.295Z,27.69
2017-07-31T11:36:03.905Z,27.82
2017-07-31T11:37:13.203Z,27.75
2017-07-31T11:38:23.422Z,27.78
2017-07-31T11:39:33.646Z,27.84
2017-07-31T11:40:43.581Z,27.69
2017-07-31T11:41:53.815Z,27.72
2017-07-31T11:43:04.047Z,27.7
2017-07-31T11:44:14.257Z,27.69
2017-07-31T11:45:24.164Z,27.72
2017-07-31T11:46:33.777Z,27.78
2017-07-31T11:47:43.703Z,27.78
2017-07-31T11:48:53.319Z,27.84
2017-07-31T11:50:03.542Z,27.75
2017-07-31T11:51:13.141Z,27.77
2017-07-31T11:52:23.049Z,27.78
2017-07-31T11:53:32.954Z,27.74
2017-07-31T11:54:43.204Z,27.75
2017-07-31T11:55:53.647Z,27.81
2017-07-31T11:57:03.267Z,27.87
2017-07-31T11:58:13.189Z,27.85
2017-07-31T11:59:23.405Z,27.85
2017-07-31T12:00:33.630Z,27.85
2017-07-31T12:01:43.557Z,27.79
2017-07-31T12:02:53.796Z,27.81
2017-07-31T12:04:04.044Z,27.82
2017-07-31T12:05:14.276Z,27.79
2017-07-31T12:06:24.199Z,27.92
2017-07-31T12:07:34.108Z,27.85
2017-07-31T12:08:43.411Z,27.79
2017-07-31T12:09:53.322Z,27.79
2017-07-31T12:11:02.002Z,27.82
2017-07-31T12:12:11.918Z,27.85
2017-07-31T12:13:21.528Z,27.81
2017-07-31T12:14:31.760Z,27.85
2017-07-31T12:15:41.370Z,27.75
2017-07-31T12:16:50.686Z,27.84
2017-07-31T12:18:00.614Z,27.79
2017-07-31T12:19:10.531Z,27.81
2017-07-31T12:20:20.139Z,27.75
2017-07-31T12:21:30.357Z,27.81
2017-07-31T12:22:40.297Z,27.78
2017-07-31T12:23:49.914Z,27.69
2017-07-31T12:25:00.131Z,27.69
2017-07-31T12:26:10.345Z,27.67
2017-07-31T12:27:20.259Z,27.7
2017-07-31T12:28:30.200Z,27.75
2017-07-31T12:29:40.124Z,27.63
2017-07-31T12:30:50.340Z,27.7
2017-07-31T12:32:00.259Z,27.72
2017-07-31T12:33:09.889Z,27.72
2017-07-31T12:34:20.150Z,27.66
2017-07-31T12:35:30.068Z,27.62
2017-07-31T12:36:39.996Z,27.63
2017-07-31T12:37:49.597Z,27.59
2017-07-31T12:38:59.208Z,27.63
2017-07-31T12:40:08.834Z,27.69
2017-07-31T12:41:18.444Z,27.67
2017-07-31T12:42:28.363Z,27.57
2017-07-31T12:43:38.594Z,27.7
2017-07-31T12:44:48.215Z,27.62
2017-07-31T12:45:58.135Z,27.6
2017-07-31T12:47:08.056Z,27.59
2017-07-31T12:48:17.985Z,27.6
2017-07-31T12:49:28.212Z,27.63
2017-07-31T12:50:37.845Z,27.62
2017-07-31T12:51:47.454Z,27.63
2017-07-31T12:52:57.406Z,27.59
2017-07-31T12:54:07.336Z,27.62
2017-07-31T12:55:17.259Z,27.57
2017-07-31T12:56:26.883Z,27.59
2017-07-31T12:57:37.126Z,27.55
2017-07-31T12:58:46.746Z,27.54
2017-07-31T12:59:56.353Z,27.54
2017-07-31T13:01:06.566Z,27.62
2017-07-31T13:02:16.491Z,27.5
2017-07-31T13:03:26.400Z,27.55
2017-07-31T13:04:36.311Z,27.6
2017-07-31T13:05:46.542Z,27.55
2017-07-31T13:06:56.776Z,27.55
2017-07-31T13:08:06.089Z,27.54
2017-07-31T13:09:15.396Z,27.5
2017-07-31T13:10:25.010Z,27.49
2017-07-31T13:11:34.945Z,27.57
2017-07-31T13:12:44.550Z,27.55
2017-07-31T13:13:54.161Z,27.55
2017-07-31T13:15:03.790Z,27.62
2017-07-31T13:16:13.702Z,27.63
2017-07-31T13:17:23.320Z,27.62
2017-07-31T13:18:33.240Z,27.6
2017-07-31T13:19:43.159Z,27.66
2017-07-31T13:20:53.395Z,27.67
2017-07-31T13:22:02.998Z,27.65
2017-07-31T13:23:12.918Z,27.63
2017-07-31T13:24:22.519Z,27.66
2017-07-31T13:25:32.737Z,27.63
2017-07-31T13:26:42.657Z,27.69
2017-07-31T13:27:52.591Z,27.67
2017-07-31T13:29:02.514Z,27.72
2017-07-31T13:30:12.124Z,27.75
2017-07-31T13:31:22.043Z,27.67
2017-07-31T13:32:31.648Z,27.69
2017-07-31T13:33:41.259Z,27.72
2017-07-31T13:34:51.473Z,27.69
2017-07-31T13:36:01.691Z,27.7
2017-07-31T13:37:11.639Z,27.63
2017-07-31T13:38:20.631Z,27.7
2017-07-31T13:39:30.549Z,27.72
2017-07-31T13:40:40.797Z,27.63
2017-07-31T13:41:50.723Z,27.59
2017-07-31T13:43:00.323Z,27.66
2017-07-31T13:44:10.547Z,27.66
2017-07-31T13:45:20.163Z,27.62
2017-07-31T13:46:30.073Z,27.65
2017-07-31T13:47:39.987Z,27.63
2017-07-31T13:48:49.906Z,27.66
2017-07-31T13:49:59.829Z,27.67
2017-07-31T13:51:09.456Z,27.7
2017-07-31T13:52:19.398Z,27.75
2017-07-31T13:53:29.326Z,27.66
2017-07-31T13:54:39.253Z,27.63
2017-07-31T13:55:49.173Z,27.66
2017-07-31T13:56:59.097Z,27.78
2017-07-31T13:58:08.094Z,27.7
2017-07-31T13:59:18.010Z,27.63
2017-07-31T14:00:27.934Z,27.69
2017-07-31T14:01:38.159Z,27.7
2017-07-31T14:02:47.772Z,27.69
2017-07-31T14:03:57.716Z,27.66
2017-07-31T14:05:07.629Z,27.63
2017-07-31T14:06:17.530Z,27.72
2017-07-31T14:07:27.768Z,27.69
2017-07-31T14:08:37.390Z,27.7
2017-07-31T14:09:46.696Z,27.74
2017-07-31T14:10:56.611Z,27.67
2017-07-31T14:12:06.840Z,27.69
2017-07-31T14:13:16.758Z,27.69
2017-07-31T14:14:26.678Z,27.74
2017-07-31T14:15:36.586Z,27.69
2017-07-31T14:16:46.516Z,27.78
2017-07-31T14:17:56.847Z,27.82
2017-07-31T14:19:07.084Z,27.69
2017-07-31T14:20:17.311Z,27.69
2017-07-31T14:21:27.528Z,27.77
2017-07-31T14:22:37.446Z,27.75
2017-07-31T14:23:47.364Z,27.77
2017-07-31T14:24:57.587Z,27.72
2017-07-31T14:26:06.905Z,27.66
2017-07-31T14:27:16.823Z,27.7
2017-07-31T14:28:26.444Z,27.74
2017-07-31T14:29:36.066Z,27.75
2017-07-31T14:30:46.301Z,27.75
2017-07-31T14:31:55.613Z,27.74
2017-07-31T14:33:05.846Z,27.75
2017-07-31T14:34:15.482Z,27.66
2017-07-31T14:35:25.101Z,27.66
2017-07-31T14:36:35.328Z,27.78
2017-07-31T14:37:45.552Z,27.75
2017-07-31T14:38:55.785Z,27.67
2017-07-31T14:40:05.695Z,27.65
2017-07-31T14:41:15.932Z,27.63
2017-07-31T14:42:25.842Z,27.63
2017-07-31T14:43:36.071Z,27.69
2017-07-31T14:44:45.990Z,27.74
2017-07-31T14:45:56.226Z,27.63
2017-07-31T14:47:05.847Z,27.69
2017-07-31T14:48:15.774Z,27.69
2017-07-31T14:49:25.686Z,27.7
2017-07-31T14:50:35.613Z,27.66
2017-07-31T14:51:45.522Z,27.69
2017-07-31T14:52:55.443Z,27.72
2017-07-31T14:54:05.354Z,27.7
2017-07-31T14:55:15.288Z,27.7
2017-07-31T14:56:24.898Z,27.72
2017-07-31T14:57:35.118Z,27.7
2017-07-31T14:58:45.041Z,27.62
2017-07-31T14:59:54.954Z,27.65
2017-07-31T15:01:04.876Z,27.66
2017-07-31T15:02:15.102Z,27.69
2017-07-31T15:03:25.330Z,27.72
2017-07-31T15:04:35.245Z,27.67
2017-07-31T15:05:44.848Z,27.67
2017-07-31T15:06:53.839Z,27.66